Detall de PIREP

Printer-friendly versionPDF version

[2016/08/20 15:20:00]
Flight IATA:CT2202
Pilot Number:012
Company ICAO:CAT
Aircraft Type:AT72/F
PAX:68
Departing Airport: LFMP
Destination Airport: LFBD
Alternate Airport:LFBO
Online: VATSIM
Route:ORBIL G36 GAI UT24 SECHE R17 MIRBA
Flight Level:F180
No Slew and time accel
No pause
Crash detect
Detect pilot in Cockpit between each 30 and 45 minutes
15:20 Zero fuel Weight: 43277 Lbs, Fuel Weight: 5138 Lbs
15:20 VATSIM:LFMP 201500Z AUTO 31017KT 9999 BKN062 BKN076 25/13 Q1017 TEMPO 31020G35KT SHRA
15:20 VATSIM:LFBD 201500Z AUTO 30011KT 9999 FEW036 BKN070 BKN088 23/13 Q1020 NOSIG
15:20 Parking Brakes off
15:23 Take-off
15:23 Take off Weight: 48369 Lbs
15:23 Wind: 309º @ 017 Knots Heading: 323º
15:23 POS N42º 44´ 49´´ E002º 52´ 03´´
15:23 Gear Up: 133 Knots
15:23 Flaps:1 at 133 Knots
15:25 Flaps:0 at 186 Knots
15:38 Wind:255º@035 Knots Heading: 318º Ground Speed: 230 Knots Altitude 16807 ft
15:39 TOC
15:39 Fuel Weight: 4577 Lb
15:53 Wind:256º@042 Knots Heading: 290º Ground Speed: 246 Knots Altitude 18211 ft
16:01 TOD
16:01 Fuel Weight: 3964 Lb
16:08 Wind:269º@023 Knots Heading: 329º Ground Speed: 258 Knots Altitude 9599 ft
16:15 Flaps:1 at 188 Knots
16:21 Flaps:2 at 172 Knots
16:21 Gear Down: 172 Knots
16:23 Wind:250º@011 Knots Heading: 280º Ground Speed: 136 Knots Altitude 590 ft
16:23 TouchDown:Rate -49 ft/min Speed: 109 Knots
16:23 VATSIM:LFBD 201600Z AUTO 23011KT 210V270 9999 FEW046 BKN058 BKN074 23/14 Q1020 NOSIG
16:23 Land
16:23 Wind:250º@011 Knots
16:23 Heading: 311º
16:23 Flight Duration: 01:00
16:23 Landing Weight: 46897 Lbs
16:23 POS N44º 49´ 41´´ W000º 42´ 56´´
16:26 Parking brakes on
16:26 Block to Block Duration: 01:06
16:26 Final Fuel: 3600 Lbls
16:26 Spent Fuel: 1538 Lbls
16:26 Flight Length: 224 NM
16:26 TOD Land Length: 78 NM

Exportar CSV

Powered by Drupal - Modified by Danger4k